sensor_id;sensor_type;location;lat;lon;timestamp;temperature;humidity
21355;DHT22;10835;50.148;19.760;2023-06-22T00:00:39;29.90;59.00
21355;DHT22;10835;50.148;19.760;2023-06-22T00:03:09;29.70;59.00
21355;DHT22;10835;50.148;19.760;2023-06-22T00:05:37;29.80;59.50
21355;DHT22;10835;50.148;19.760;2023-06-22T00:08:06;30.00;59.20
21355;DHT22;10835;50.148;19.760;2023-06-22T00:10:34;29.80;59.00
21355;DHT22;10835;50.148;19.760;2023-06-22T00:13:03;30.10;58.80
21355;DHT22;10835;50.148;19.760;2023-06-22T00:15:33;30.50;58.30
21355;DHT22;10835;50.148;19.760;2023-06-22T00:18:02;30.60;58.00
21355;DHT22;10835;50.148;19.760;2023-06-22T00:20:30;30.60;57.90
21355;DHT22;10835;50.148;19.760;2023-06-22T00:23:00;30.70;57.70
21355;DHT22;10835;50.148;19.760;2023-06-22T00:25:28;30.30;57.70
21355;DHT22;10835;50.148;19.760;2023-06-22T00:27:56;29.80;58.40
21355;DHT22;10835;50.148;19.760;2023-06-22T00:30:24;30.10;59.00
21355;DHT22;10835;50.148;19.760;2023-06-22T00:32:58;30.30;58.80
21355;DHT22;10835;50.148;19.760;2023-06-22T00:35:27;30.10;58.40
21355;DHT22;10835;50.148;19.760;2023-06-22T00:37:56;29.50;59.10
21355;DHT22;10835;50.148;19.760;2023-06-22T00:40:29;29.60;59.90
21355;DHT22;10835;50.148;19.760;2023-06-22T00:42:58;29.60;59.80
21355;DHT22;10835;50.148;19.760;2023-06-22T00:45:27;29.70;59.50
21355;DHT22;10835;50.148;19.760;2023-06-22T00:47:57;29.70;59.50
21355;DHT22;10835;50.148;19.760;2023-06-22T00:50:28;29.80;59.40
21355;DHT22;10835;50.148;19.760;2023-06-22T00:53:01;29.80;59.00
21355;DHT22;10835;50.148;19.760;2023-06-22T00:55:32;29.60;59.20
21355;DHT22;10835;50.148;19.760;2023-06-22T00:58:04;29.30;59.60
21355;DHT22;10835;50.148;19.760;2023-06-22T01:00:34;29.20;59.70
21355;DHT22;10835;50.148;19.760;2023-06-22T01:03:04;29.10;60.60
21355;DHT22;10835;50.148;19.760;2023-06-22T01:05:37;29.10;60.60
21355;DHT22;10835;50.148;19.760;2023-06-22T01:08:16;29.30;60.40
21355;DHT22;10835;50.148;19.760;2023-06-22T01:10:52;29.00;61.00
21355;DHT22;10835;50.148;19.760;2023-06-22T01:13:29;29.10;60.70
21355;DHT22;10835;50.148;19.760;2023-06-22T01:16:04;29.30;60.20
21355;DHT22;10835;50.148;19.760;2023-06-22T01:18:36;29.40;60.00
21355;DHT22;10835;50.148;19.760;2023-06-22T01:21:09;29.80;59.50
21355;DHT22;10835;50.148;19.760;2023-06-22T01:23:52;29.80;59.20
21355;DHT22;10835;50.148;19.760;2023-06-22T01:26:28;29.90;58.80
21355;DHT22;10835;50.148;19.760;2023-06-22T01:29:00;29.90;58.70
21355;DHT22;10835;50.148;19.760;2023-06-22T01:31:32;30.10;58.30
21355;DHT22;10835;50.148;19.760;2023-06-22T01:34:04;30.50;57.90
21355;DHT22;10835;50.148;19.760;2023-06-22T01:36:33;30.60;57.30
21355;DHT22;10835;50.148;19.760;2023-06-22T01:39:03;30.40;57.30
21355;DHT22;10835;50.148;19.760;2023-06-22T01:41:35;30.50;57.20
21355;DHT22;10835;50.148;19.760;2023-06-22T01:44:07;30.50;57.10
21355;DHT22;10835;50.148;19.760;2023-06-22T01:46:37;30.50;57.00
21355;DHT22;10835;50.148;19.760;2023-06-22T01:49:07;30.70;57.00
21355;DHT22;10835;50.148;19.760;2023-06-22T01:51:36;30.80;56.80
21355;DHT22;10835;50.148;19.760;2023-06-22T01:54:06;30.60;56.70
21355;DHT22;10835;50.148;19.760;2023-06-22T01:56:35;30.30;57.00
21355;DHT22;10835;50.148;19.760;2023-06-22T01:59:11;30.30;57.20
21355;DHT22;10835;50.148;19.760;2023-06-22T02:01:44;30.50;56.80
21355;DHT22;10835;50.148;19.760;2023-06-22T02:04:19;30.20;56.80
21355;DHT22;10835;50.148;19.760;2023-06-22T02:06:51;30.20;57.90
21355;DHT22;10835;50.148;19.760;2023-06-22T02:09:23;30.20;57.40
21355;DHT22;10835;50.148;19.760;2023-06-22T02:11:54;30.40;57.20
21355;DHT22;10835;50.148;19.760;2023-06-22T02:14:27;30.20;57.20
21355;DHT22;10835;50.148;19.760;2023-06-22T02:16:56;30.20;57.10
21355;DHT22;10835;50.148;19.760;2023-06-22T02:19:27;30.60;56.60
21355;DHT22;10835;50.148;19.760;2023-06-22T02:22:00;30.40;56.70
21355;DHT22;10835;50.148;19.760;2023-06-22T02:24:28;30.40;56.80
21355;DHT22;10835;50.148;19.760;2023-06-22T02:26:59;30.30;56.70
21355;DHT22;10835;50.148;19.760;2023-06-22T02:29:29;30.30;56.90
21355;DHT22;10835;50.148;19.760;2023-06-22T02:31:57;30.40;56.40
21355;DHT22;10835;50.148;19.760;2023-06-22T02:34:25;30.20;56.90
21355;DHT22;10835;50.148;19.760;2023-06-22T02:36:54;30.40;56.70
21355;DHT22;10835;50.148;19.760;2023-06-22T02:39:24;30.50;56.60
21355;DHT22;10835;50.148;19.760;2023-06-22T02:41:54;30.70;56.20
21355;DHT22;10835;50.148;19.760;2023-06-22T02:44:23;30.50;56.20
21355;DHT22;10835;50.148;19.760;2023-06-22T02:46:52;30.50;56.20
21355;DHT22;10835;50.148;19.760;2023-06-22T02:49:21;30.60;56.20
21355;DHT22;10835;50.148;19.760;2023-06-22T02:51:50;30.30;56.20
21355;DHT22;10835;50.148;19.760;2023-06-22T02:54:20;30.20;56.40
21355;DHT22;10835;50.148;19.760;2023-06-22T02:56:51;29.90;56.80
21355;DHT22;10835;50.148;19.760;2023-06-22T02:59:22;29.80;56.80
21355;DHT22;10835;50.148;19.760;2023-06-22T03:02:00;29.90;57.00
21355;DHT22;10835;50.148;19.760;2023-06-22T03:04:31;29.70;57.50
21355;DHT22;10835;50.148;19.760;2023-06-22T03:07:00;29.90;57.50
21355;DHT22;10835;50.148;19.760;2023-06-22T03:09:30;29.80;57.30
21355;DHT22;10835;50.148;19.760;2023-06-22T03:11:58;29.70;57.60
21355;DHT22;10835;50.148;19.760;2023-06-22T03:14:34;29.70;57.80
21355;DHT22;10835;50.148;19.760;2023-06-22T03:17:05;29.50;57.80
21355;DHT22;10835;50.148;19.760;2023-06-22T03:19:34;29.50;58.40
21355;DHT22;10835;50.148;19.760;2023-06-22T03:22:02;29.60;58.30
21355;DHT22;10835;50.148;19.760;2023-06-22T03:24:30;29.40;58.00
21355;DHT22;10835;50.148;19.760;2023-06-22T03:26:59;29.50;58.00
21355;DHT22;10835;50.148;19.760;2023-06-22T03:29:28;29.60;58.00
21355;DHT22;10835;50.148;19.760;2023-06-22T03:31:57;29.60;58.20
21355;DHT22;10835;50.148;19.760;2023-06-22T03:34:27;29.70;58.20
21355;DHT22;10835;50.148;19.760;2023-06-22T03:37:01;29.70;57.90
21355;DHT22;10835;50.148;19.760;2023-06-22T03:39:30;29.70;58.20
21355;DHT22;10835;50.148;19.760;2023-06-22T03:41:58;29.70;58.20
21355;DHT22;10835;50.148;19.760;2023-06-22T03:44:28;29.70;57.90
21355;DHT22;10835;50.148;19.760;2023-06-22T03:46:56;29.80;57.80
21355;DHT22;10835;50.148;19.760;2023-06-22T03:49:24;29.70;58.10
21355;DHT22;10835;50.148;19.760;2023-06-22T03:51:54;29.70;58.40
21355;DHT22;10835;50.148;19.760;2023-06-22T03:54:22;29.70;58.30
21355;DHT22;10835;50.148;19.760;2023-06-22T03:56:51;29.70;58.40
21355;DHT22;10835;50.148;19.760;2023-06-22T03:59:19;29.70;58.30
21355;DHT22;10835;50.148;19.760;2023-06-22T04:01:47;29.80;58.30
21355;DHT22;10835;50.148;19.760;2023-06-22T04:04:15;29.90;58.10
21355;DHT22;10835;50.148;19.760;2023-06-22T04:06:44;29.80;58.20
21355;DHT22;10835;50.148;19.760;2023-06-22T04:09:13;29.90;58.70
21355;DHT22;10835;50.148;19.760;2023-06-22T04:11:41;29.90;58.60
21355;DHT22;10835;50.148;19.760;2023-06-22T04:14:10;30.00;58.50
21355;DHT22;10835;50.148;19.760;2023-06-22T04:16:38;30.10;58.30
21355;DHT22;10835;50.148;19.760;2023-06-22T04:19:06;30.10;58.50
21355;DHT22;10835;50.148;19.760;2023-06-22T04:21:40;30.20;58.30
21355;DHT22;10835;50.148;19.760;2023-06-22T04:24:08;30.30;58.10
21355;DHT22;10835;50.148;19.760;2023-06-22T04:26:38;30.10;57.90
21355;DHT22;10835;50.148;19.760;2023-06-22T04:29:08;30.00;58.50
21355;DHT22;10835;50.148;19.760;2023-06-22T04:31:36;30.00;58.90
21355;DHT22;10835;50.148;19.760;2023-06-22T04:34:06;30.00;58.70
21355;DHT22;10835;50.148;19.760;2023-06-22T04:36:35;29.70;59.00
21355;DHT22;10835;50.148;19.760;2023-06-22T04:39:07;29.90;59.60
21355;DHT22;10835;50.148;19.760;2023-06-22T04:41:38;29.70;59.50
21355;DHT22;10835;50.148;19.760;2023-06-22T04:44:13;30.10;59.30
21355;DHT22;10835;50.148;19.760;2023-06-22T04:46:52;30.20;59.70
21355;DHT22;10835;50.148;19.760;2023-06-22T04:49:21;30.10;58.70
21355;DHT22;10835;50.148;19.760;2023-06-22T04:51:49;30.20;58.70
21355;DHT22;10835;50.148;19.760;2023-06-22T04:54:18;29.80;58.90
21355;DHT22;10835;50.148;19.760;2023-06-22T04:56:48;30.00;59.50
21355;DHT22;10835;50.148;19.760;2023-06-22T04:59:23;30.20;59.70
21355;DHT22;10835;50.148;19.760;2023-06-22T05:01:54;30.00;59.90
21355;DHT22;10835;50.148;19.760;2023-06-22T05:04:23;30.10;60.00
21355;DHT22;10835;50.148;19.760;2023-06-22T05:06:52;30.20;60.20
21355;DHT22;10835;50.148;19.760;2023-06-22T05:09:21;30.30;59.60
21355;DHT22;10835;50.148;19.760;2023-06-22T05:11:51;30.10;60.20
21355;DHT22;10835;50.148;19.760;2023-06-22T05:14:19;30.50;59.80
21355;DHT22;10835;50.148;19.760;2023-06-22T05:16:48;30.50;59.20
21355;DHT22;10835;50.148;19.760;2023-06-22T05:19:19;30.60;59.20
21355;DHT22;10835;50.148;19.760;2023-06-22T05:21:47;30.60;59.60
21355;DHT22;10835;50.148;19.760;2023-06-22T05:24:15;30.80;59.40
21355;DHT22;10835;50.148;19.760;2023-06-22T05:26:43;30.70;58.90
21355;DHT22;10835;50.148;19.760;2023-06-22T05:29:13;30.70;59.30
21355;DHT22;10835;50.148;19.760;2023-06-22T05:31:43;30.60;59.80
21355;DHT22;10835;50.148;19.760;2023-06-22T05:34:12;31.00;61.10
21355;DHT22;10835;50.148;19.760;2023-06-22T05:36:40;31.10;58.80
21355;DHT22;10835;50.148;19.760;2023-06-22T05:39:11;31.40;58.50
21355;DHT22;10835;50.148;19.760;2023-06-22T05:41:41;31.60;58.20
21355;DHT22;10835;50.148;19.760;2023-06-22T05:44:10;31.90;57.90
21355;DHT22;10835;50.148;19.760;2023-06-22T05:46:41;32.20;57.40
21355;DHT22;10835;50.148;19.760;2023-06-22T05:49:12;32.40;56.30
21355;DHT22;10835;50.148;19.760;2023-06-22T05:51:40;32.50;56.20
21355;DHT22;10835;50.148;19.760;2023-06-22T05:54:09;32.50;56.50
21355;DHT22;10835;50.148;19.760;2023-06-22T05:56:37;32.80;55.80
21355;DHT22;10835;50.148;19.760;2023-06-22T05:59:05;32.80;55.50
21355;DHT22;10835;50.148;19.760;2023-06-22T06:01:33;32.90;55.80
21355;DHT22;10835;50.148;19.760;2023-06-22T06:04:04;32.70;55.50
21355;DHT22;10835;50.148;19.760;2023-06-22T06:06:35;32.60;55.80
21355;DHT22;10835;50.148;19.760;2023-06-22T06:09:04;32.80;55.60
21355;DHT22;10835;50.148;19.760;2023-06-22T06:11:34;32.80;55.50
21355;DHT22;10835;50.148;19.760;2023-06-22T06:14:03;32.50;55.50
21355;DHT22;10835;50.148;19.760;2023-06-22T06:16:31;32.20;56.60
21355;DHT22;10835;50.148;19.760;2023-06-22T06:19:03;32.40;56.70
21355;DHT22;10835;50.148;19.760;2023-06-22T06:21:32;32.70;55.90
21355;DHT22;10835;50.148;19.760;2023-06-22T06:24:00;32.60;57.50
21355;DHT22;10835;50.148;19.760;2023-06-22T06:26:28;32.50;56.40
21355;DHT22;10835;50.148;19.760;2023-06-22T06:29:00;32.70;56.60
21355;DHT22;10835;50.148;19.760;2023-06-22T06:31:31;32.70;56.40
21355;DHT22;10835;50.148;19.760;2023-06-22T06:34:00;32.80;56.00
21355;DHT22;10835;50.148;19.760;2023-06-22T06:36:30;33.20;55.70
21355;DHT22;10835;50.148;19.760;2023-06-22T06:39:00;33.00;55.70
21355;DHT22;10835;50.148;19.760;2023-06-22T06:41:29;32.80;55.50
21355;DHT22;10835;50.148;19.760;2023-06-22T06:44:00;32.90;55.90
21355;DHT22;10835;50.148;19.760;2023-06-22T06:46:28;33.00;55.50
21355;DHT22;10835;50.148;19.760;2023-06-22T06:48:56;33.20;56.30
21355;DHT22;10835;50.148;19.760;2023-06-22T06:51:25;33.20;56.10
21355;DHT22;10835;50.148;19.760;2023-06-22T06:53:55;33.00;55.90
21355;DHT22;10835;50.148;19.760;2023-06-22T06:56:23;33.20;55.70
21355;DHT22;10835;50.148;19.760;2023-06-22T06:58:51;33.40;54.70
21355;DHT22;10835;50.148;19.760;2023-06-22T07:01:20;33.40;55.30
21355;DHT22;10835;50.148;19.760;2023-06-22T07:03:48;33.40;55.10
21355;DHT22;10835;50.148;19.760;2023-06-22T07:06:17;33.20;55.20
21355;DHT22;10835;50.148;19.760;2023-06-22T07:08:45;33.30;54.40
21355;DHT22;10835;50.148;19.760;2023-06-22T07:11:14;33.30;54.60
21355;DHT22;10835;50.148;19.760;2023-06-22T07:13:43;33.00;55.00
21355;DHT22;10835;50.148;19.760;2023-06-22T07:16:11;33.30;55.10
21355;DHT22;10835;50.148;19.760;2023-06-22T07:18:40;33.40;54.40
21355;DHT22;10835;50.148;19.760;2023-06-22T07:21:09;33.10;55.00
21355;DHT22;10835;50.148;19.760;2023-06-22T07:23:37;33.20;55.50
21355;DHT22;10835;50.148;19.760;2023-06-22T07:26:06;33.20;56.00
21355;DHT22;10835;50.148;19.760;2023-06-22T07:28:36;33.20;55.00
21355;DHT22;10835;50.148;19.760;2023-06-22T07:31:05;33.50;54.30
21355;DHT22;10835;50.148;19.760;2023-06-22T07:33:33;33.60;55.20
21355;DHT22;10835;50.148;19.760;2023-06-22T07:36:01;33.70;54.10
21355;DHT22;10835;50.148;19.760;2023-06-22T07:38:35;33.80;53.30
21355;DHT22;10835;50.148;19.760;2023-06-22T07:41:03;33.70;54.20
21355;DHT22;10835;50.148;19.760;2023-06-22T07:43:32;33.90;53.10
21355;DHT22;10835;50.148;19.760;2023-06-22T07:46:02;33.70;53.30
21355;DHT22;10835;50.148;19.760;2023-06-22T07:48:31;33.60;53.50
21355;DHT22;10835;50.148;19.760;2023-06-22T07:50:59;33.80;53.60
21355;DHT22;10835;50.148;19.760;2023-06-22T07:53:28;34.00;54.20
21355;DHT22;10835;50.148;19.760;2023-06-22T07:55:56;34.10;53.10
21355;DHT22;10835;50.148;19.760;2023-06-22T07:58:24;34.30;53.80
21355;DHT22;10835;50.148;19.760;2023-06-22T08:00:57;34.40;53.30
21355;DHT22;10835;50.148;19.760;2023-06-22T08:03:27;34.60;52.30
21355;DHT22;10835;50.148;19.760;2023-06-22T08:05:55;34.70;52.80
21355;DHT22;10835;50.148;19.760;2023-06-22T08:08:24;34.70;52.50
21355;DHT22;10835;50.148;19.760;2023-06-22T08:10:52;34.80;54.20
21355;DHT22;10835;50.148;19.760;2023-06-22T08:13:20;34.70;52.60
21355;DHT22;10835;50.148;19.760;2023-06-22T08:15:49;34.90;51.30
21355;DHT22;10835;50.148;19.760;2023-06-22T08:18:17;34.90;50.50
21355;DHT22;10835;50.148;19.760;2023-06-22T08:20:47;34.80;50.70
21355;DHT22;10835;50.148;19.760;2023-06-22T08:23:15;34.60;51.10
21355;DHT22;10835;50.148;19.760;2023-06-22T08:25:43;34.50;51.90
21355;DHT22;10835;50.148;19.760;2023-06-22T08:28:12;34.50;51.10
21355;DHT22;10835;50.148;19.760;2023-06-22T08:30:40;34.30;52.10
21355;DHT22;10835;50.148;19.760;2023-06-22T08:33:09;34.10;52.50
21355;DHT22;10835;50.148;19.760;2023-06-22T08:35:43;34.50;50.50
21355;DHT22;10835;50.148;19.760;2023-06-22T08:38:13;34.60;52.10
21355;DHT22;10835;50.148;19.760;2023-06-22T08:40:48;34.70;50.10
21355;DHT22;10835;50.148;19.760;2023-06-22T08:43:17;34.60;51.20
21355;DHT22;10835;50.148;19.760;2023-06-22T08:45:48;34.60;51.60
21355;DHT22;10835;50.148;19.760;2023-06-22T08:48:17;34.90;51.10
21355;DHT22;10835;50.148;19.760;2023-06-22T08:50:47;35.20;50.10
21355;DHT22;10835;50.148;19.760;2023-06-22T08:53:17;35.50;49.00
21355;DHT22;10835;50.148;19.760;2023-06-22T08:55:47;35.70;47.80
21355;DHT22;10835;50.148;19.760;2023-06-22T08:58:17;35.20;48.00
21355;DHT22;10835;50.148;19.760;2023-06-22T09:00:47;35.30;48.00
21355;DHT22;10835;50.148;19.760;2023-06-22T09:03:15;35.20;49.90
21355;DHT22;10835;50.148;19.760;2023-06-22T09:05:44;35.30;49.80
21355;DHT22;10835;50.148;19.760;2023-06-22T09:08:12;35.30;51.40
21355;DHT22;10835;50.148;19.760;2023-06-22T09:10:42;35.40;49.00
21355;DHT22;10835;50.148;19.760;2023-06-22T09:13:10;35.60;50.00
21355;DHT22;10835;50.148;19.760;2023-06-22T09:15:38;35.60;46.10
21355;DHT22;10835;50.148;19.760;2023-06-22T09:18:10;35.20;47.30
21355;DHT22;10835;50.148;19.760;2023-06-22T09:20:38;35.30;49.00
21355;DHT22;10835;50.148;19.760;2023-06-22T09:23:06;35.40;47.60
21355;DHT22;10835;50.148;19.760;2023-06-22T09:25:35;35.60;47.00
21355;DHT22;10835;50.148;19.760;2023-06-22T09:28:04;35.80;47.50
21355;DHT22;10835;50.148;19.760;2023-06-22T09:30:33;35.80;46.60
21355;DHT22;10835;50.148;19.760;2023-06-22T09:33:01;35.30;47.50
21355;DHT22;10835;50.148;19.760;2023-06-22T09:35:29;35.10;47.60
21355;DHT22;10835;50.148;19.760;2023-06-22T09:37:57;35.10;47.60
21355;DHT22;10835;50.148;19.760;2023-06-22T09:40:26;34.70;48.10
21355;DHT22;10835;50.148;19.760;2023-06-22T09:42:55;34.80;47.80
21355;DHT22;10835;50.148;19.760;2023-06-22T09:45:24;34.80;49.20
21355;DHT22;10835;50.148;19.760;2023-06-22T09:47:54;34.90;48.10
21355;DHT22;10835;50.148;19.760;2023-06-22T09:50:23;35.10;49.10
21355;DHT22;10835;50.148;19.760;2023-06-22T09:52:51;35.30;49.20
21355;DHT22;10835;50.148;19.760;2023-06-22T09:55:24;35.70;47.90
21355;DHT22;10835;50.148;19.760;2023-06-22T09:57:54;35.90;47.30
21355;DHT22;10835;50.148;19.760;2023-06-22T10:00:24;35.90;47.50
21355;DHT22;10835;50.148;19.760;2023-06-22T10:02:53;35.90;47.80
21355;DHT22;10835;50.148;19.760;2023-06-22T10:05:27;36.00;46.30
21355;DHT22;10835;50.148;19.760;2023-06-22T10:07:55;35.80;46.30
21355;DHT22;10835;50.148;19.760;2023-06-22T10:10:24;35.80;48.20
21355;DHT22;10835;50.148;19.760;2023-06-22T10:12:55;35.70;48.30
21355;DHT22;10835;50.148;19.760;2023-06-22T10:15:25;35.80;46.60
21355;DHT22;10835;50.148;19.760;2023-06-22T10:17:57;36.00;46.30
21355;DHT22;10835;50.148;19.760;2023-06-22T10:20:26;35.90;46.30
21355;DHT22;10835;50.148;19.760;2023-06-22T10:22:55;35.70;46.10
21355;DHT22;10835;50.148;19.760;2023-06-22T10:25:27;35.40;47.20
21355;DHT22;10835;50.148;19.760;2023-06-22T10:27:56;35.30;47.10
21355;DHT22;10835;50.148;19.760;2023-06-22T10:30:26;35.30;46.80
21355;DHT22;10835;50.148;19.760;2023-06-22T10:32:55;35.00;46.50
21355;DHT22;10835;50.148;19.760;2023-06-22T10:35:24;34.90;46.80
21355;DHT22;10835;50.148;19.760;2023-06-22T10:37:52;34.90;46.70
21355;DHT22;10835;50.148;19.760;2023-06-22T10:40:21;35.00;48.20
21355;DHT22;10835;50.148;19.760;2023-06-22T10:42:49;35.20;47.60
21355;DHT22;10835;50.148;19.760;2023-06-22T10:45:18;35.60;48.30
21355;DHT22;10835;50.148;19.760;2023-06-22T10:47:51;35.90;45.80
21355;DHT22;10835;50.148;19.760;2023-06-22T10:50:19;36.20;45.30
21355;DHT22;10835;50.148;19.760;2023-06-22T10:52:48;35.80;46.30
21355;DHT22;10835;50.148;19.760;2023-06-22T10:55:18;36.20;46.10
21355;DHT22;10835;50.148;19.760;2023-06-22T10:57:46;36.60;45.00
21355;DHT22;10835;50.148;19.760;2023-06-22T11:00:15;36.90;44.70
21355;DHT22;10835;50.148;19.760;2023-06-22T11:02:44;37.20;42.50
21355;DHT22;10835;50.148;19.760;2023-06-22T11:05:14;37.10;43.80
21355;DHT22;10835;50.148;19.760;2023-06-22T11:07:43;37.10;42.10
21355;DHT22;10835;50.148;19.760;2023-06-22T11:10:13;37.10;43.50
21355;DHT22;10835;50.148;19.760;2023-06-22T11:12:42;37.00;43.80
21355;DHT22;10835;50.148;19.760;2023-06-22T11:15:10;37.20;42.50
21355;DHT22;10835;50.148;19.760;2023-06-22T11:17:38;37.30;43.50
21355;DHT22;10835;50.148;19.760;2023-06-22T11:20:07;37.30;42.00
21355;DHT22;10835;50.148;19.760;2023-06-22T11:22:40;37.20;43.70
21355;DHT22;10835;50.148;19.760;2023-06-22T11:25:08;37.50;43.90
21355;DHT22;10835;50.148;19.760;2023-06-22T11:27:38;37.60;42.70
21355;DHT22;10835;50.148;19.760;2023-06-22T11:30:08;37.70;41.40
21355;DHT22;10835;50.148;19.760;2023-06-22T11:32:36;37.40;41.50
21355;DHT22;10835;50.148;19.760;2023-06-22T11:35:05;37.40;42.40
21355;DHT22;10835;50.148;19.760;2023-06-22T11:37:33;37.20;42.50
21355;DHT22;10835;50.148;19.760;2023-06-22T11:40:04;36.90;42.40
21355;DHT22;10835;50.148;19.760;2023-06-22T11:42:38;36.80;44.40
21355;DHT22;10835;50.148;19.760;2023-06-22T11:45:07;37.10;43.80
21355;DHT22;10835;50.148;19.760;2023-06-22T11:47:35;37.30;43.50
21355;DHT22;10835;50.148;19.760;2023-06-22T11:50:05;37.40;42.80
21355;DHT22;10835;50.148;19.760;2023-06-22T11:52:34;37.30;42.70
21355;DHT22;10835;50.148;19.760;2023-06-22T11:55:06;37.60;42.20
21355;DHT22;10835;50.148;19.760;2023-06-22T11:57:36;37.50;42.40
21355;DHT22;10835;50.148;19.760;2023-06-22T12:00:05;37.80;41.80
21355;DHT22;10835;50.148;19.760;2023-06-22T12:02:45;37.70;42.30
21355;DHT22;10835;50.148;19.760;2023-06-22T12:05:13;38.00;41.20
21355;DHT22;10835;50.148;19.760;2023-06-22T12:07:42;38.30;41.20
21355;DHT22;10835;50.148;19.760;2023-06-22T12:10:11;38.20;41.00
21355;DHT22;10835;50.148;19.760;2023-06-22T12:12:41;38.30;41.20
21355;DHT22;10835;50.148;19.760;2023-06-22T12:15:10;38.10;41.20
21355;DHT22;10835;50.148;19.760;2023-06-22T12:17:39;38.10;40.40
21355;DHT22;10835;50.148;19.760;2023-06-22T12:20:08;38.00;41.20
21355;DHT22;10835;50.148;19.760;2023-06-22T12:22:37;38.10;41.80
21355;DHT22;10835;50.148;19.760;2023-06-22T12:25:06;37.80;42.80
21355;DHT22;10835;50.148;19.760;2023-06-22T12:27:36;37.60;43.10
21355;DHT22;10835;50.148;19.760;2023-06-22T12:30:05;37.80;43.20
21355;DHT22;10835;50.148;19.760;2023-06-22T12:32:34;37.80;40.90
21355;DHT22;10835;50.148;19.760;2023-06-22T12:35:02;37.80;40.60
21355;DHT22;10835;50.148;19.760;2023-06-22T12:37:31;37.80;41.00
21355;DHT22;10835;50.148;19.760;2023-06-22T12:40:03;37.90;42.20
21355;DHT22;10835;50.148;19.760;2023-06-22T12:42:32;37.80;40.40
21355;DHT22;10835;50.148;19.760;2023-06-22T12:45:01;37.40;40.20
21355;DHT22;10835;50.148;19.760;2023-06-22T12:47:31;37.50;41.00
21355;DHT22;10835;50.148;19.760;2023-06-22T12:49:59;37.80;39.90
21355;DHT22;10835;50.148;19.760;2023-06-22T12:52:30;37.40;41.00
21355;DHT22;10835;50.148;19.760;2023-06-22T12:54:59;37.20;41.40
21355;DHT22;10835;50.148;19.760;2023-06-22T12:57:27;37.50;41.60
21355;DHT22;10835;50.148;19.760;2023-06-22T12:59:56;37.50;42.00
21355;DHT22;10835;50.148;19.760;2023-06-22T13:02:26;37.70;41.70
21355;DHT22;10835;50.148;19.760;2023-06-22T13:04:55;37.70;41.20
21355;DHT22;10835;50.148;19.760;2023-06-22T13:07:23;37.70;41.10
21355;DHT22;10835;50.148;19.760;2023-06-22T13:09:53;37.80;40.60
21355;DHT22;10835;50.148;19.760;2023-06-22T13:12:21;37.30;41.30
21355;DHT22;10835;50.148;19.760;2023-06-22T13:14:49;37.10;40.70
21355;DHT22;10835;50.148;19.760;2023-06-22T13:17:17;37.20;41.80
21355;DHT22;10835;50.148;19.760;2023-06-22T13:19:50;37.20;41.70
21355;DHT22;10835;50.148;19.760;2023-06-22T13:22:29;37.40;41.20
21355;DHT22;10835;50.148;19.760;2023-06-22T13:24:59;37.40;41.40
21355;DHT22;10835;50.148;19.760;2023-06-22T13:27:28;37.00;41.10
21355;DHT22;10835;50.148;19.760;2023-06-22T13:29:56;37.00;42.90
21355;DHT22;10835;50.148;19.760;2023-06-22T13:32:24;37.10;40.50
21355;DHT22;10835;50.148;19.760;2023-06-22T13:34:54;37.00;41.80
21355;DHT22;10835;50.148;19.760;2023-06-22T13:37:22;37.20;43.00
21355;DHT22;10835;50.148;19.760;2023-06-22T13:39:51;37.30;41.10
21355;DHT22;10835;50.148;19.760;2023-06-22T13:42:19;37.40;41.80
21355;DHT22;10835;50.148;19.760;2023-06-22T13:44:47;37.80;40.20
21355;DHT22;10835;50.148;19.760;2023-06-22T13:47:15;37.90;39.90
21355;DHT22;10835;50.148;19.760;2023-06-22T13:49:44;37.70;41.20
21355;DHT22;10835;50.148;19.760;2023-06-22T13:52:13;37.80;41.70
21355;DHT22;10835;50.148;19.760;2023-06-22T13:54:44;38.00;40.00
21355;DHT22;10835;50.148;19.760;2023-06-22T13:57:12;38.10;39.00
21355;DHT22;10835;50.148;19.760;2023-06-22T13:59:43;38.30;40.30
21355;DHT22;10835;50.148;19.760;2023-06-22T14:02:11;38.20;39.90
21355;DHT22;10835;50.148;19.760;2023-06-22T14:04:39;38.30;40.30
21355;DHT22;10835;50.148;19.760;2023-06-22T14:07:08;38.60;40.50
21355;DHT22;10835;50.148;19.760;2023-06-22T14:09:37;38.60;40.10
21355;DHT22;10835;50.148;19.760;2023-06-22T14:12:06;38.60;39.60
21355;DHT22;10835;50.148;19.760;2023-06-22T14:14:35;38.60;40.30
21355;DHT22;10835;50.148;19.760;2023-06-22T14:17:04;38.60;40.70
21355;DHT22;10835;50.148;19.760;2023-06-22T14:19:32;38.60;40.70
21355;DHT22;10835;50.148;19.760;2023-06-22T14:22:00;38.60;40.80
21355;DHT22;10835;50.148;19.760;2023-06-22T14:24:29;38.40;41.40
21355;DHT22;10835;50.148;19.760;2023-06-22T14:26:58;38.20;41.40
21355;DHT22;10835;50.148;19.760;2023-06-22T14:29:29;38.20;40.70
21355;DHT22;10835;50.148;19.760;2023-06-22T14:31:57;38.20;42.70
21355;DHT22;10835;50.148;19.760;2023-06-22T14:34:27;38.10;40.50
21355;DHT22;10835;50.148;19.760;2023-06-22T14:36:55;38.00;40.50
21355;DHT22;10835;50.148;19.760;2023-06-22T14:39:23;37.80;41.40
21355;DHT22;10835;50.148;19.760;2023-06-22T14:41:52;37.90;41.80
21355;DHT22;10835;50.148;19.760;2023-06-22T14:44:21;38.00;41.40
21355;DHT22;10835;50.148;19.760;2023-06-22T14:46:50;37.80;41.60
21355;DHT22;10835;50.148;19.760;2023-06-22T14:49:18;37.80;41.90
21355;DHT22;10835;50.148;19.760;2023-06-22T14:51:48;37.80;41.10
21355;DHT22;10835;50.148;19.760;2023-06-22T14:54:16;37.80;41.60
21355;DHT22;10835;50.148;19.760;2023-06-22T14:56:45;37.90;41.50
21355;DHT22;10835;50.148;19.760;2023-06-22T14:59:13;37.90;41.20
21355;DHT22;10835;50.148;19.760;2023-06-22T15:01:43;37.50;41.40
21355;DHT22;10835;50.148;19.760;2023-06-22T15:04:14;37.30;42.70
21355;DHT22;10835;50.148;19.760;2023-06-22T15:06:42;37.50;41.70
21355;DHT22;10835;50.148;19.760;2023-06-22T15:09:11;37.60;41.20
21355;DHT22;10835;50.148;19.760;2023-06-22T15:11:39;37.60;41.50
21355;DHT22;10835;50.148;19.760;2023-06-22T15:14:07;37.80;41.60
21355;DHT22;10835;50.148;19.760;2023-06-22T15:16:38;37.90;41.00
21355;DHT22;10835;50.148;19.760;2023-06-22T15:19:07;37.90;41.10
21355;DHT22;10835;50.148;19.760;2023-06-22T15:21:36;37.90;41.80
21355;DHT22;10835;50.148;19.760;2023-06-22T15:24:04;37.90;41.50
21355;DHT22;10835;50.148;19.760;2023-06-22T15:26:33;38.00;41.40
21355;DHT22;10835;50.148;19.760;2023-06-22T15:29:01;38.00;40.40